»·PEaware :: N818PR KSBD-KWHP

N818PR :: KSBD-KWHP

FLIGHT INFORMATION

Flight Status: Arrived
Operator: Privately registered:
United States
More flights under this callsign
Pilot: Anonymous 17765 (17765)
Aircraft: BEECH AIRCRAFT BONANZA
(BE36)
More flights by this aircraft type
Origin: KSBD San Bernardino Intl
United States
Destination: KWHP Whiteman
United States
More flights between these airports :: More routes between these airports
Route: +PDZ V186 VNY
File this flight plan on PilotEdge
Remarks: TEC ONTP1
Altitude:
(Current/Filed)
4,000ft
Speed:
(Current/Filed)
180kts
Departed: 12-Sep-20 08:39 PM
Arrived: 12-Sep-20 09:20 PM
Distance/Time
Traveled:
59nm/0:41
Distance/Time
To Go:
Arrived

Flight Plot

Page will automatically refresh every two minutes.

Flight plan parsing failed; only flown route is shown


Map Options




Map Legend


Flown Route
Filed Route
Departure Airport
Arrival Airport
Navaid (VOR, NDB)
Fix

Horizontal Profiles

Position Reports

Time Latitude Longitude Heading Altitude Ground
Speed
12-Sep-20 20:22 34.102872 -117.245557 226 1098ft 0kts
12-Sep-20 20:23 34.102872 -117.245557 226 1098ft 0kts
12-Sep-20 20:24 34.102872 -117.245557 226 1098ft 0kts
12-Sep-20 20:25 34.102872 -117.245557 226 1098ft 0kts
12-Sep-20 20:26 34.102872 -117.245557 226 1098ft 0kts
12-Sep-20 20:27 34.102872 -117.245557 226 1098ft 0kts
12-Sep-20 20:28 34.102872 -117.245557 226 1098ft 0kts
12-Sep-20 20:29 34.102872 -117.245557 226 1098ft 0kts
12-Sep-20 20:30 34.100784 -117.243828 115 1101ft 18kts
12-Sep-20 20:31 34.096198 -117.242070 182 1103ft 22kts
12-Sep-20 20:32 34.094134 -117.245365 248 1098ft 27kts
12-Sep-20 20:33 34.091891 -117.250957 161 1086ft 7kts
12-Sep-20 20:34 34.091612 -117.250846 177 1085ft 0kts
12-Sep-20 20:35 34.091612 -117.250846 177 1085ft 0kts
12-Sep-20 20:36 34.091612 -117.250846 177 1085ft 0kts
12-Sep-20 20:37 34.091612 -117.250846 177 1085ft 0kts
12-Sep-20 20:38 34.094498 -117.235765 76 1313ft 90kts
12-Sep-20 20:39 34.084418 -117.220447 247 2366ft 101kts
12-Sep-20 20:40 34.070687 -117.248646 236 3468ft 100kts
12-Sep-20 20:41 34.054596 -117.277065 238 4275ft 104kts
12-Sep-20 20:42 34.038723 -117.306691 238 4875ft 105kts
12-Sep-20 20:43 34.022359 -117.336584 233 5353ft 107kts
12-Sep-20 20:44 34.004863 -117.365797 237 5617ft 108kts
12-Sep-20 20:45 33.988685 -117.395939 238 5748ft 102kts
12-Sep-20 20:46 33.972210 -117.428017 244 6145ft 108kts
12-Sep-20 20:47 33.951714 -117.469337 243 5938ft 158kts
12-Sep-20 20:48 33.927400 -117.514196 233 5976ft 163kts
12-Sep-20 20:49 33.929138 -117.564622 295 6013ft 164kts
12-Sep-20 20:50 33.948383 -117.614541 292 6010ft 166kts
12-Sep-20 20:51 33.966378 -117.665584 292 6000ft 166kts
12-Sep-20 20:52 33.984449 -117.716678 293 5998ft 166kts
12-Sep-20 20:53 34.002169 -117.767799 289 5998ft 166kts
12-Sep-20 20:54 34.017954 -117.819789 291 5999ft 166kts
12-Sep-20 20:55 34.034172 -117.871679 290 6000ft 165kts
12-Sep-20 20:56 34.049776 -117.923121 289 6003ft 165kts
12-Sep-20 20:58 34.065827 -117.975201 289 6003ft 166kts
12-Sep-20 20:59 34.081917 -118.027474 289 6003ft 166kts
12-Sep-20 21:00 34.097893 -118.079654 289 6003ft 166kts
12-Sep-20 21:01 34.114473 -118.131588 288 6005ft 166kts
12-Sep-20 21:02 34.130761 -118.183234 325 6051ft 154kts
12-Sep-20 21:03 34.149989 -118.227793 292 6032ft 168kts
12-Sep-20 21:04 34.165398 -118.280732 288 6000ft 164kts
12-Sep-20 21:05 34.180322 -118.329679 287 4999ft 154kts
12-Sep-20 21:06 34.193244 -118.379763 286 4307ft 165kts
12-Sep-20 21:07 34.207661 -118.433139 287 4312ft 168kts
12-Sep-20 21:08 34.221411 -118.487404 271 4288ft 168kts
12-Sep-20 21:09 34.221272 -118.543338 269 4351ft 166kts
12-Sep-20 21:10 34.217727 -118.599613 263 4307ft 169kts
12-Sep-20 21:11 34.215295 -118.654903 267 3935ft 162kts
12-Sep-20 21:12 34.193864 -118.678412 111 3894ft 139kts
12-Sep-20 21:13 34.209894 -118.637353 50 3894ft 140kts
12-Sep-20 21:14 34.215620 -118.591140 76 3900ft 143kts
12-Sep-20 21:15 34.220165 -118.543407 86 3444ft 143kts
12-Sep-20 21:16 34.221810 -118.496637 88 3160ft 139kts
12-Sep-20 21:16 34.234170 -118.463601 63 2588ft 142kts
12-Sep-20 21:17 34.253548 -118.429595 1 1461ft 115kts
12-Sep-20 21:19 34.269968 -118.424500 143 1480ft 113kts
12-Sep-20 21:19 34.259386 -118.413553 130 987ft 0kts
12-Sep-20 21:20 34.260303 -118.412194 306 991ft 0kts
12-Sep-20 21:22 34.263094 -118.415099 314 1004ft 0kts
12-Sep-20 21:22 34.263773 -118.414910 44 1009ft 0kts
12-Sep-20 21:23 34.263773 -118.414910 44 1009ft 0kts
12-Sep-20 21:24 34.263773 -118.414910 44 1009ft 0kts
12-Sep-20 21:25 34.263773 -118.414910 44 1009ft 0kts
12-Sep-20 21:26 34.263773 -118.414910 44 1009ft 0kts

Navigation Log

Ident Type
Flight plan parsing failed, navigation log unavailable